createdAt,value
2023-06-13T00:00:13.392Z,20.00
2023-06-13T00:01:14.039Z,20.20
2023-06-13T00:02:13.011Z,20.00
2023-06-13T00:03:13.529Z,20.00
2023-06-13T00:04:13.570Z,20.10
2023-06-13T00:05:13.658Z,20.00
2023-06-13T00:06:13.717Z,19.90
2023-06-13T00:07:14.725Z,20.00
2023-06-13T00:08:13.728Z,19.70
2023-06-13T00:09:16.248Z,19.80
2023-06-13T00:10:13.670Z,19.90
2023-06-13T00:11:12.880Z,19.90
2023-06-13T00:12:13.132Z,19.90
2023-06-13T00:13:13.215Z,19.80
2023-06-13T00:14:13.049Z,20.00
2023-06-13T00:15:12.872Z,20.00
2023-06-13T00:16:12.862Z,20.00
2023-06-13T00:17:13.908Z,19.90
2023-06-13T00:18:12.935Z,19.90
2023-06-13T00:19:13.030Z,20.10
2023-06-13T00:20:13.108Z,20.00
2023-06-13T00:21:13.347Z,20.10
2023-06-13T00:22:13.281Z,20.00
2023-06-13T00:23:13.472Z,19.90
2023-06-13T00:24:13.421Z,20.00
2023-06-13T00:25:13.452Z,20.00
2023-06-13T00:26:13.621Z,20.00
2023-06-13T00:27:13.463Z,19.90
2023-06-13T00:28:13.523Z,20.00
2023-06-13T00:29:18.462Z,20.30
2023-06-13T00:30:13.732Z,20.10
2023-06-13T00:31:13.310Z,20.10
2023-06-13T00:32:13.182Z,20.10
2023-06-13T00:33:13.143Z,20.10
2023-06-13T00:34:13.036Z,20.00
2023-06-13T00:35:12.892Z,20.00
2023-06-13T00:36:13.736Z,19.90
2023-06-13T00:37:13.652Z,19.80
2023-06-13T00:38:13.893Z,19.70
2023-06-13T00:39:13.170Z,19.70
2023-06-13T00:40:13.560Z,19.80
2023-06-13T00:41:13.808Z,19.90
2023-06-13T00:42:13.749Z,19.90
2023-06-13T00:43:13.798Z,19.80
2023-06-13T00:44:13.713Z,19.70
2023-06-13T00:45:13.506Z,19.70
2023-06-13T00:46:13.532Z,19.70
2023-06-13T00:47:13.521Z,19.60
2023-06-13T00:48:13.593Z,19.60
2023-06-13T00:49:13.584Z,19.50
2023-06-13T00:50:13.926Z,19.40
2023-06-13T00:51:13.352Z,19.50
2023-06-13T00:52:13.502Z,19.40
2023-06-13T00:53:13.391Z,19.30
2023-06-13T00:54:13.258Z,19.30
2023-06-13T00:55:13.352Z,19.10
2023-06-13T00:56:13.150Z,19.20
2023-06-13T00:57:13.053Z,19.20
2023-06-13T00:58:12.963Z,19.40
2023-06-13T00:59:13.123Z,19.30
2023-06-13T01:00:13.423Z,19.40
2023-06-13T01:01:13.604Z,19.50
2023-06-13T01:02:13.722Z,19.20
2023-06-13T01:03:13.848Z,19.30
2023-06-13T01:04:13.068Z,19.40
2023-06-13T01:05:13.200Z,19.30
2023-06-13T01:06:13.206Z,19.20
2023-06-13T01:07:13.138Z,19.10
2023-06-13T01:08:13.014Z,19.00
2023-06-13T01:09:12.737Z,19.10
2023-06-13T01:10:14.083Z,19.00
2023-06-13T01:11:13.272Z,19.00
2023-06-13T01:12:13.115Z,18.90
2023-06-13T01:13:13.009Z,18.80
2023-06-13T01:14:12.754Z,18.90
2023-06-13T01:15:13.683Z,18.90
2023-06-13T01:16:13.987Z,18.90
2023-06-13T01:17:13.058Z,18.80
2023-06-13T01:18:12.883Z,18.70
2023-06-13T01:19:12.895Z,18.80
2023-06-13T01:20:13.052Z,18.70
2023-06-13T01:21:13.455Z,18.60
2023-06-13T01:22:13.410Z,18.80
2023-06-13T01:23:13.380Z,18.70
2023-06-13T01:24:13.552Z,18.90
2023-06-13T01:25:15.074Z,18.70
2023-06-13T01:26:13.040Z,18.90
2023-06-13T01:27:13.454Z,18.60
2023-06-13T01:28:13.394Z,18.70
2023-06-13T01:29:13.513Z,18.80
2023-06-13T01:30:13.797Z,18.70
2023-06-13T01:31:12.886Z,18.90
2023-06-13T01:32:12.782Z,19.10
2023-06-13T01:33:13.846Z,18.80
2023-06-13T01:34:13.117Z,18.80
2023-06-13T01:35:13.336Z,18.70
2023-06-13T01:36:13.362Z,18.50
2023-06-13T01:37:13.347Z,18.50
2023-06-13T01:38:13.589Z,18.60
2023-06-13T01:39:13.688Z,18.60
2023-06-13T01:40:14.372Z,18.60
2023-06-13T01:41:13.553Z,18.70
2023-06-13T01:42:13.488Z,18.80
2023-06-13T01:43:13.344Z,18.50
2023-06-13T01:44:13.318Z,18.50
2023-06-13T01:45:13.280Z,18.60
2023-06-13T01:46:13.316Z,18.60
2023-06-13T01:47:13.498Z,18.60
2023-06-13T01:48:13.439Z,18.70
2023-06-13T01:49:13.999Z,18.60
2023-06-13T01:50:13.273Z,18.70
2023-06-13T01:51:13.488Z,18.70
2023-06-13T01:52:13.489Z,18.80
2023-06-13T01:53:13.530Z,18.60
2023-06-13T01:54:13.643Z,18.50
2023-06-13T01:55:13.641Z,18.50
2023-06-13T01:56:13.580Z,18.30
2023-06-13T01:57:13.419Z,18.30
2023-06-13T01:58:13.490Z,18.30
2023-06-13T01:59:13.337Z,18.30
2023-06-13T02:00:13.668Z,18.30
2023-06-13T02:01:12.901Z,18.40
2023-06-13T02:02:12.909Z,18.60
2023-06-13T02:03:12.841Z,18.50
2023-06-13T02:04:12.823Z,18.40
2023-06-13T02:05:13.694Z,18.40
2023-06-13T02:06:13.744Z,18.60
2023-06-13T02:07:13.646Z,18.50
2023-06-13T02:08:13.658Z,18.40
2023-06-13T02:09:13.588Z,18.30
2023-06-13T02:10:13.777Z,18.30
2023-06-13T02:11:12.884Z,18.30
2023-06-13T02:12:13.884Z,18.30
2023-06-13T02:13:13.815Z,18.20
2023-06-13T02:14:13.757Z,18.10
2023-06-13T02:15:13.502Z,18.10
2023-06-13T02:16:13.732Z,18.00
2023-06-13T02:17:13.822Z,18.10
2023-06-13T02:18:13.917Z,18.10
2023-06-13T02:19:12.911Z,18.00
2023-06-13T02:20:13.070Z,18.00
2023-06-13T02:21:13.285Z,17.90
2023-06-13T02:22:13.263Z,17.90
2023-06-13T02:23:13.277Z,18.00
2023-06-13T02:24:13.314Z,18.00
2023-06-13T02:25:13.420Z,17.90
2023-06-13T02:26:13.420Z,17.70
2023-06-13T02:27:13.438Z,17.70
2023-06-13T02:28:13.414Z,17.80
2023-06-13T02:29:13.269Z,17.90
2023-06-13T02:30:13.752Z,17.80
2023-06-13T02:31:13.185Z,17.80
2023-06-13T02:32:13.047Z,17.90
2023-06-13T02:33:13.206Z,17.80
2023-06-13T02:34:13.103Z,17.70
2023-06-13T02:35:13.037Z,17.70
2023-06-13T02:36:13.034Z,17.60
2023-06-13T02:37:12.826Z,17.90
2023-06-13T02:38:13.774Z,18.00
2023-06-13T02:39:13.797Z,17.80
2023-06-13T02:40:14.197Z,17.70
2023-06-13T02:41:13.452Z,17.70
2023-06-13T02:42:13.311Z,17.70
2023-06-13T02:43:13.306Z,17.60
2023-06-13T02:44:13.114Z,17.60
2023-06-13T02:45:13.106Z,17.50
2023-06-13T02:46:13.055Z,17.70
2023-06-13T02:47:13.129Z,17.80
2023-06-13T02:48:13.375Z,17.90
2023-06-13T02:49:13.228Z,18.10
2023-06-13T02:50:13.452Z,18.00
2023-06-13T02:51:13.844Z,17.60
2023-06-13T02:52:13.943Z,17.70
2023-06-13T02:53:13.139Z,17.70
2023-06-13T02:54:13.214Z,17.70
2023-06-13T02:55:13.142Z,17.90
2023-06-13T02:56:12.930Z,17.80
2023-06-13T02:57:12.844Z,17.70
2023-06-13T02:58:13.988Z,17.40
2023-06-13T02:59:13.112Z,17.60
2023-06-13T03:00:13.401Z,17.80
2023-06-13T03:01:13.608Z,17.70
2023-06-13T03:02:14.592Z,17.60
2023-06-13T03:03:13.855Z,17.60
2023-06-13T03:04:12.919Z,17.60
2023-06-13T03:05:12.800Z,17.50
2023-06-13T03:06:13.711Z,17.40
2023-06-13T03:07:13.765Z,17.50
2023-06-13T03:08:14.299Z,17.50
2023-06-13T03:09:13.284Z,17.60
2023-06-13T03:10:13.445Z,17.70
2023-06-13T03:11:13.644Z,17.70
2023-06-13T03:12:13.441Z,17.70
2023-06-13T03:13:13.410Z,17.60
2023-06-13T03:14:13.530Z,17.60
2023-06-13T03:15:13.563Z,17.50
2023-06-13T03:16:13.818Z,17.30
2023-06-13T03:17:13.887Z,17.40
2023-06-13T03:18:13.901Z,17.50
2023-06-13T03:19:12.818Z,17.50
2023-06-13T03:20:13.825Z,17.50
2023-06-13T03:21:13.825Z,17.60
2023-06-13T03:22:13.713Z,17.50
2023-06-13T03:23:13.590Z,17.50
2023-06-13T03:24:13.780Z,17.60
2023-06-13T03:25:13.993Z,17.80
2023-06-13T03:26:12.870Z,18.00
2023-06-13T03:27:13.879Z,17.50
2023-06-13T03:28:13.765Z,17.80
2023-06-13T03:29:13.766Z,17.80
2023-06-13T03:30:14.196Z,17.90
2023-06-13T03:31:13.540Z,17.90
2023-06-13T03:32:13.514Z,18.10
2023-06-13T03:33:13.435Z,17.70
2023-06-13T03:34:13.504Z,17.80
2023-06-13T03:35:13.320Z,17.70
2023-06-13T03:36:13.268Z,18.10
2023-06-13T03:37:13.133Z,17.80
2023-06-13T03:38:13.368Z,18.10
2023-06-13T03:39:13.250Z,17.90
2023-06-13T03:40:13.502Z,18.00
2023-06-13T03:41:13.642Z,18.00
2023-06-13T03:42:13.651Z,18.10
2023-06-13T03:43:13.656Z,18.00
2023-06-13T03:44:13.873Z,18.00
2023-06-13T03:45:13.697Z,17.80
2023-06-13T03:46:15.975Z,17.90
2023-06-13T03:47:13.384Z,18.00
2023-06-13T03:48:13.483Z,18.20
2023-06-13T03:49:14.185Z,18.10
2023-06-13T03:50:13.621Z,18.10
2023-06-13T03:51:13.797Z,18.10
2023-06-13T03:52:13.829Z,18.00
2023-06-13T03:53:14.097Z,17.90
2023-06-13T03:54:13.426Z,17.80
2023-06-13T03:55:13.321Z,17.90
2023-06-13T03:56:13.120Z,18.20
2023-06-13T03:57:12.866Z,18.10
2023-06-13T03:58:14.201Z,18.20
2023-06-13T03:59:13.303Z,18.30
2023-06-13T04:00:13.689Z,18.30
2023-06-13T04:01:12.864Z,18.10
2023-06-13T04:02:14.781Z,18.10
2023-06-13T04:03:13.945Z,17.90
2023-06-13T04:04:12.978Z,17.70
2023-06-13T04:05:13.110Z,17.70
2023-06-13T04:06:13.053Z,18.00
2023-06-13T04:07:13.046Z,17.90
2023-06-13T04:08:12.906Z,18.20
2023-06-13T04:09:12.786Z,17.90
2023-06-13T04:10:14.118Z,18.10
2023-06-13T04:11:13.266Z,18.10
2023-06-13T04:12:13.153Z,17.90
2023-06-13T04:13:13.118Z,18.00
2023-06-13T04:14:13.056Z,18.00
2023-06-13T04:15:13.107Z,18.20
2023-06-13T04:16:13.289Z,18.10
2023-06-13T04:17:19.438Z,18.30
2023-06-13T04:18:13.353Z,18.20
2023-06-13T04:19:13.249Z,18.00
2023-06-13T04:20:13.706Z,18.40
2023-06-13T04:21:13.008Z,18.20
2023-06-13T04:22:13.242Z,17.90
2023-06-13T04:23:13.158Z,18.20
2023-06-13T04:24:13.014Z,18.10
2023-06-13T04:25:12.949Z,18.40
2023-06-13T04:26:12.789Z,18.50
2023-06-13T04:27:14.516Z,18.30
2023-06-13T04:28:13.453Z,18.50
2023-06-13T04:29:13.352Z,18.30
2023-06-13T04:30:13.626Z,18.40
2023-06-13T04:31:12.817Z,18.20
2023-06-13T04:32:14.091Z,17.90
2023-06-13T04:33:13.265Z,17.90
2023-06-13T04:34:13.548Z,18.10
2023-06-13T04:35:13.597Z,18.00
2023-06-13T04:36:13.561Z,17.90
2023-06-13T04:37:13.311Z,18.20
2023-06-13T04:38:13.335Z,18.40
2023-06-13T04:39:13.464Z,18.30
2023-06-13T04:40:13.844Z,18.40
2023-06-13T04:41:12.933Z,18.20
2023-06-13T04:42:12.741Z,18.50
2023-06-13T04:43:13.759Z,18.30
2023-06-13T04:44:13.669Z,18.40
2023-06-13T04:45:13.957Z,18.50
2023-06-13T04:46:13.150Z,18.50
2023-06-13T04:47:13.147Z,18.50
2023-06-13T04:48:13.012Z,18.60
2023-06-13T04:49:13.300Z,18.90
2023-06-13T04:50:14.000Z,19.10
2023-06-13T04:51:15.277Z,19.10
2023-06-13T04:52:13.311Z,19.10
2023-06-13T04:53:13.238Z,19.10
2023-06-13T04:54:13.242Z,19.00
2023-06-13T04:55:13.313Z,19.10
2023-06-13T04:56:13.460Z,19.30
2023-06-13T04:57:13.521Z,19.30
2023-06-13T04:58:13.609Z,19.30
2023-06-13T04:59:13.920Z,19.20
2023-06-13T05:00:13.681Z,19.30
2023-06-13T05:01:13.718Z,19.30
2023-06-13T05:02:13.691Z,19.20
2023-06-13T05:03:13.573Z,19.40
2023-06-13T05:04:13.540Z,19.50
2023-06-13T05:05:13.444Z,19.40
2023-06-13T05:06:13.509Z,19.30
2023-06-13T05:07:13.694Z,19.20
2023-06-13T05:08:13.750Z,19.50
2023-06-13T05:09:13.965Z,19.50
2023-06-13T05:10:15.686Z,19.50
2023-06-13T05:11:13.419Z,19.50
2023-06-13T05:12:13.291Z,19.50
2023-06-13T05:13:13.255Z,19.70
2023-06-13T05:14:13.458Z,19.60
2023-06-13T05:15:13.341Z,19.60
2023-06-13T05:16:13.257Z,19.70
2023-06-13T05:17:13.491Z,19.50
2023-06-13T05:18:13.717Z,19.60
2023-06-13T05:19:13.665Z,19.70
2023-06-13T05:20:13.928Z,19.80
2023-06-13T05:21:13.016Z,19.80
2023-06-13T05:22:12.941Z,19.90
2023-06-13T05:23:12.753Z,19.90
2023-06-13T05:24:13.697Z,19.80
2023-06-13T05:25:13.668Z,19.80
2023-06-13T05:26:13.810Z,19.60
2023-06-13T05:27:13.748Z,19.90
2023-06-13T05:28:13.611Z,20.10
2023-06-13T05:29:13.630Z,20.20
2023-06-13T05:30:13.883Z,20.20
2023-06-13T05:31:14.242Z,20.10
2023-06-13T05:32:13.486Z,19.70
2023-06-13T05:33:13.401Z,20.00
2023-06-13T05:34:13.316Z,20.00
2023-06-13T05:35:13.565Z,19.70
2023-06-13T05:36:13.478Z,20.00
2023-06-13T05:37:13.598Z,20.30
2023-06-13T05:38:13.449Z,20.30
2023-06-13T05:39:14.136Z,20.40
2023-06-13T05:40:13.515Z,20.60
2023-06-13T05:41:13.590Z,20.70
2023-06-13T05:42:13.599Z,20.70
2023-06-13T05:43:13.496Z,20.60
2023-06-13T05:44:13.466Z,20.70
2023-06-13T05:45:13.552Z,20.80
2023-06-13T05:46:13.493Z,20.60
2023-06-13T05:47:13.592Z,20.60
2023-06-13T05:48:14.271Z,20.80
2023-06-13T05:49:13.495Z,20.90
2023-06-13T05:50:14.137Z,21.00
2023-06-13T05:51:13.416Z,20.80
2023-06-13T05:52:13.462Z,21.00
2023-06-13T05:53:13.414Z,20.90
2023-06-13T05:54:13.350Z,21.00
2023-06-13T05:55:14.370Z,20.80
2023-06-13T05:56:13.280Z,21.10
2023-06-13T05:57:13.295Z,21.10
2023-06-13T05:58:13.475Z,21.30
2023-06-13T05:59:13.520Z,21.30
2023-06-13T06:00:13.825Z,21.00
2023-06-13T06:01:13.178Z,21.20
2023-06-13T06:03:18.520Z,21.30
2023-06-13T06:04:14.474Z,21.60
2023-06-13T06:05:13.476Z,21.20
2023-06-13T06:06:13.397Z,21.40
2023-06-13T06:07:13.334Z,21.40
2023-06-13T06:08:13.256Z,21.30
2023-06-13T06:09:13.367Z,21.80
2023-06-13T06:10:14.402Z,21.90
2023-06-13T06:11:13.552Z,21.90
2023-06-13T06:12:13.613Z,21.70
2023-06-13T06:13:13.672Z,22.00
2023-06-13T06:14:13.638Z,22.10
2023-06-13T06:15:13.601Z,21.90
2023-06-13T06:16:13.573Z,22.20
2023-06-13T06:17:13.535Z,22.20
2023-06-13T06:18:13.602Z,22.00
2023-06-13T06:19:13.665Z,22.00
2023-06-13T06:20:14.067Z,22.00
2023-06-13T06:21:13.192Z,22.00
2023-06-13T06:22:13.299Z,22.10
2023-06-13T06:23:13.200Z,22.30
2023-06-13T06:24:13.102Z,22.20
2023-06-13T06:25:14.789Z,22.40
2023-06-13T06:26:13.073Z,22.60
2023-06-13T06:27:13.153Z,22.40
2023-06-13T06:28:12.971Z,22.10
2023-06-13T06:29:12.943Z,22.50
2023-06-13T06:30:13.333Z,22.40
2023-06-13T06:31:13.679Z,22.50
2023-06-13T06:32:13.699Z,22.30
2023-06-13T06:33:13.577Z,22.10
2023-06-13T06:34:13.838Z,22.50
2023-06-13T06:35:14.125Z,22.60
2023-06-13T06:36:13.132Z,22.70
2023-06-13T06:37:14.178Z,22.90
2023-06-13T06:38:13.318Z,23.10
2023-06-13T06:39:13.178Z,23.20
2023-06-13T06:40:13.748Z,22.70
2023-06-13T06:41:13.113Z,22.70
2023-06-13T06:42:13.587Z,22.80
2023-06-13T06:43:13.483Z,23.00
2023-06-13T06:44:13.466Z,23.10
2023-06-13T06:45:13.462Z,22.80
2023-06-13T06:46:13.407Z,22.80
2023-06-13T06:47:13.334Z,22.80
2023-06-13T06:48:13.543Z,23.00
2023-06-13T06:49:13.425Z,22.70
2023-06-13T06:50:13.853Z,23.00
2023-06-13T06:51:13.019Z,23.40
2023-06-13T06:52:12.935Z,23.20
2023-06-13T06:53:13.052Z,23.20
2023-06-13T06:54:12.893Z,23.40
2023-06-13T06:55:12.924Z,23.60
2023-06-13T06:56:12.886Z,22.90
2023-06-13T06:57:13.032Z,22.80
2023-06-13T06:58:12.969Z,22.90
2023-06-13T06:59:13.176Z,23.00
2023-06-13T07:00:13.353Z,23.60
2023-06-13T07:01:13.543Z,23.80
2023-06-13T07:02:13.621Z,23.70
2023-06-13T07:03:14.182Z,23.60
2023-06-13T07:04:13.575Z,23.70
2023-06-13T07:05:13.516Z,23.80
2023-06-13T07:06:13.380Z,23.50
2023-06-13T07:07:13.274Z,23.50
2023-06-13T07:08:13.380Z,23.20
2023-06-13T07:09:13.671Z,23.30
2023-06-13T07:10:14.320Z,23.50
2023-06-13T07:11:13.592Z,23.70
2023-06-13T07:12:13.863Z,23.80
2023-06-13T07:13:13.976Z,23.80
2023-06-13T07:14:13.105Z,23.80
2023-06-13T07:15:13.210Z,23.60
2023-06-13T07:16:13.244Z,23.70
2023-06-13T07:17:13.206Z,23.70
2023-06-13T07:18:13.344Z,23.90
2023-06-13T07:19:13.371Z,23.90
2023-06-13T07:20:13.925Z,23.90
2023-06-13T07:21:13.360Z,23.60
2023-06-13T07:22:13.303Z,23.70
2023-06-13T07:23:13.311Z,23.90
2023-06-13T07:24:13.316Z,24.00
2023-06-13T07:25:18.423Z,23.90
2023-06-13T07:26:13.433Z,23.50
2023-06-13T07:27:13.182Z,23.90
2023-06-13T07:28:13.309Z,23.80
2023-06-13T07:29:13.579Z,24.20
2023-06-13T07:30:13.868Z,24.40
2023-06-13T07:31:18.159Z,24.20
2023-06-13T07:32:13.433Z,23.90
2023-06-13T07:33:14.028Z,24.10
2023-06-13T07:34:34.085Z,24.20
2023-06-13T07:35:13.122Z,24.60
2023-06-13T07:36:12.921Z,24.80
2023-06-13T07:37:12.782Z,24.50
2023-06-13T07:38:13.898Z,24.80
2023-06-13T07:39:12.936Z,24.40
2023-06-13T07:40:13.576Z,25.00
2023-06-13T07:41:13.802Z,24.60
2023-06-13T07:42:13.987Z,24.10
2023-06-13T07:43:12.944Z,24.50
2023-06-13T07:44:38.543Z,24.90
2023-06-13T07:45:12.901Z,24.80
2023-06-13T07:46:12.985Z,24.70
2023-06-13T07:47:13.086Z,24.50
2023-06-13T07:48:13.230Z,24.50
2023-06-13T07:49:13.235Z,24.70
2023-06-13T07:50:13.565Z,25.00
2023-06-13T07:51:13.984Z,25.10
2023-06-13T07:52:12.888Z,24.70
2023-06-13T07:53:13.789Z,24.20
2023-06-13T07:54:13.829Z,24.50
2023-06-13T07:55:13.853Z,24.80
2023-06-13T07:56:18.833Z,25.30
2023-06-13T07:57:33.707Z,25.40
2023-06-13T07:58:13.074Z,25.10
2023-06-13T07:59:12.934Z,25.10
2023-06-13T08:00:13.214Z,24.90
2023-06-13T08:01:13.562Z,24.90
2023-06-13T08:02:13.868Z,24.90
2023-06-13T08:03:13.822Z,25.20
2023-06-13T08:04:14.276Z,25.10
2023-06-13T08:05:13.321Z,24.80
2023-06-13T08:06:13.542Z,25.10
2023-06-13T08:07:13.509Z,25.20
2023-06-13T08:08:13.514Z,25.40
2023-06-13T08:09:14.011Z,25.40
2023-06-13T08:10:13.430Z,24.80
2023-06-13T08:11:14.422Z,24.50
2023-06-13T08:12:13.675Z,25.10
2023-06-13T08:13:13.642Z,25.60
2023-06-13T08:14:13.587Z,25.70
2023-06-13T08:15:13.570Z,25.50
2023-06-13T08:16:13.762Z,25.60
2023-06-13T08:17:14.004Z,26.00
2023-06-13T08:18:31.414Z,25.60
2023-06-13T08:19:13.688Z,25.30
2023-06-13T08:20:14.120Z,25.20
2023-06-13T08:21:13.381Z,25.40
2023-06-13T08:22:13.230Z,25.40
2023-06-13T08:23:13.338Z,25.50
2023-06-13T08:24:13.375Z,24.70
2023-06-13T08:25:13.673Z,25.30
2023-06-13T08:26:13.847Z,25.60
2023-06-13T08:27:14.073Z,25.10
2023-06-13T08:28:13.275Z,24.90
2023-06-13T08:29:15.024Z,24.80
2023-06-13T08:30:14.054Z,24.50
2023-06-13T08:31:39.484Z,24.80
2023-06-13T08:32:13.329Z,25.50
2023-06-13T08:33:13.639Z,26.00
2023-06-13T08:34:15.132Z,26.00
2023-06-13T08:35:14.424Z,26.00
2023-06-13T08:36:30.696Z,25.80
2023-06-13T08:37:13.115Z,25.60
2023-06-13T08:38:12.977Z,26.00
2023-06-13T08:39:13.210Z,26.50
2023-06-13T08:40:13.398Z,26.80
2023-06-13T08:41:13.345Z,26.30
2023-06-13T08:42:13.409Z,26.40
2023-06-13T08:43:13.275Z,26.30
2023-06-13T08:44:13.263Z,26.50
2023-06-13T08:45:13.754Z,26.40
2023-06-13T08:46:12.946Z,26.60
2023-06-13T08:47:31.555Z,26.50
2023-06-13T08:48:13.005Z,26.40
2023-06-13T08:49:13.438Z,26.60
2023-06-13T08:50:13.687Z,26.00
2023-06-13T08:51:17.649Z,26.60
2023-06-13T08:52:23.647Z,26.60
2023-06-13T08:53:18.936Z,26.50
2023-06-13T08:54:12.683Z,26.30
2023-06-13T08:55:34.479Z,25.80
2023-06-13T08:56:13.768Z,25.90
2023-06-13T08:57:13.809Z,26.20
2023-06-13T08:58:18.908Z,26.50
2023-06-13T08:59:12.929Z,26.10
2023-06-13T09:00:47.811Z,26.70
2023-06-13T09:01:00.272Z,26.70
2023-06-13T09:01:12.172Z,26.50
2023-06-13T09:02:13.140Z,26.40
2023-06-13T09:03:13.612Z,26.20
2023-06-13T09:04:14.029Z,26.40
2023-06-13T09:05:13.253Z,26.40
2023-06-13T09:06:13.553Z,26.60
2023-06-13T09:07:28.438Z,26.80
2023-06-13T09:08:30.007Z,26.60
2023-06-13T09:09:13.348Z,27.00
2023-06-13T09:10:13.728Z,26.90
2023-06-13T09:11:12.929Z,26.90
2023-06-13T09:12:13.130Z,27.00
2023-06-13T09:13:13.310Z,27.10
2023-06-13T09:14:13.483Z,27.00
2023-06-13T09:15:13.792Z,26.40
2023-06-13T09:16:13.085Z,26.10
2023-06-13T09:17:13.193Z,26.70
2023-06-13T09:18:13.157Z,26.60
2023-06-13T09:19:14.562Z,26.80
2023-06-13T09:20:13.892Z,27.20
2023-06-13T09:21:13.257Z,27.80
2023-06-13T09:22:13.275Z,27.90
2023-06-13T09:23:13.287Z,27.40
2023-06-13T09:24:13.418Z,27.10
2023-06-13T09:25:13.548Z,27.10
2023-06-13T09:26:13.472Z,26.60
2023-06-13T09:27:13.503Z,26.30
2023-06-13T09:28:21.237Z,26.50
2023-06-13T09:29:26.564Z,26.20
2023-06-13T09:30:19.757Z,27.10
2023-06-13T09:31:13.270Z,27.20
2023-06-13T09:32:13.277Z,28.00
2023-06-13T09:33:13.359Z,28.10
2023-06-13T09:34:13.325Z,28.30
2023-06-13T09:35:17.939Z,28.50
2023-06-13T09:36:17.838Z,28.80
2023-06-13T09:37:13.752Z,28.70
2023-06-13T09:38:13.819Z,29.10
2023-06-13T09:39:13.857Z,29.00
2023-06-13T09:40:14.897Z,28.50
2023-06-13T09:41:13.017Z,28.50
2023-06-13T09:42:12.929Z,29.00
2023-06-13T09:43:18.048Z,30.40
2023-06-13T09:44:58.700Z,28.90
2023-06-13T09:45:13.033Z,29.60
2023-06-13T09:46:13.220Z,30.10
2023-06-13T09:47:13.282Z,30.60
2023-06-13T09:48:13.392Z,30.50
2023-06-13T09:49:13.280Z,30.30
2023-06-13T09:50:13.261Z,30.20
2023-06-13T09:51:13.558Z,30.80
2023-06-13T09:52:13.656Z,30.40
2023-06-13T09:53:14.902Z,30.20
2023-06-13T09:54:12.758Z,31.10
2023-06-13T09:55:13.772Z,29.30
2023-06-13T09:56:13.039Z,29.70
2023-06-13T09:57:12.974Z,29.30
2023-06-13T09:58:26.888Z,29.70
2023-06-13T09:59:13.206Z,29.10
2023-06-13T10:00:13.533Z,29.70
2023-06-13T10:01:13.919Z,28.90
2023-06-13T10:02:13.194Z,29.70
2023-06-13T10:03:21.156Z,29.70
2023-06-13T10:04:14.704Z,31.00
2023-06-13T10:05:13.739Z,30.20
2023-06-13T10:06:13.950Z,29.70
2023-06-13T10:07:12.772Z,30.00
2023-06-13T10:08:13.860Z,30.60
2023-06-13T10:09:12.768Z,31.30
2023-06-13T10:10:13.653Z,30.50
2023-06-13T10:11:13.499Z,30.50
2023-06-13T10:12:13.479Z,30.30
2023-06-13T10:13:13.452Z,29.00
2023-06-13T10:14:13.598Z,29.10
2023-06-13T10:15:14.236Z,28.60
2023-06-13T10:16:13.261Z,27.70
2023-06-13T10:17:13.309Z,27.60
2023-06-13T10:18:13.228Z,27.80
2023-06-13T10:19:13.334Z,28.20
2023-06-13T10:20:13.450Z,29.50
2023-06-13T10:21:13.358Z,30.60
2023-06-13T10:22:15.646Z,31.20
2023-06-13T10:23:14.312Z,31.90
2023-06-13T10:24:18.195Z,30.90
2023-06-13T10:25:13.190Z,31.60
2023-06-13T10:26:13.220Z,32.40
2023-06-13T10:27:13.123Z,32.40
2023-06-13T10:28:13.050Z,30.50
2023-06-13T10:29:13.221Z,29.90
2023-06-13T10:30:13.575Z,29.60
2023-06-13T10:31:13.292Z,30.20
2023-06-13T10:32:13.198Z,31.10
2023-06-13T10:34:19.415Z,31.00
2023-06-13T10:36:13.353Z,30.10
2023-06-13T10:37:19.836Z,29.70
2023-06-13T10:38:19.587Z,30.40
2023-06-13T10:39:17.250Z,30.60
2023-06-13T10:40:13.709Z,29.10
2023-06-13T10:41:13.100Z,29.40
2023-06-13T10:42:13.244Z,29.50
2023-06-13T10:43:14.018Z,30.30
2023-06-13T10:44:13.112Z,30.20
2023-06-13T10:45:13.620Z,28.50
2023-06-13T10:46:13.668Z,29.80
2023-06-13T10:47:13.692Z,28.40
2023-06-13T10:48:14.302Z,29.10
2023-06-13T10:49:13.964Z,29.50
2023-06-13T10:50:14.215Z,29.50
2023-06-13T10:51:14.454Z,28.70
2023-06-13T10:52:14.591Z,29.50
2023-06-13T10:53:14.622Z,29.40
2023-06-13T10:55:15.654Z,29.80
2023-06-13T10:56:13.771Z,31.00
2023-06-13T10:57:13.841Z,29.50
2023-06-13T10:58:13.938Z,30.50
2023-06-13T10:59:18.518Z,31.00
2023-06-13T11:00:13.750Z,30.60
2023-06-13T11:01:12.954Z,29.50
2023-06-13T11:02:12.900Z,29.10
2023-06-13T11:03:14.081Z,28.40
2023-06-13T11:04:13.907Z,29.20
2023-06-13T11:05:13.309Z,28.90
2023-06-13T11:06:13.280Z,29.10
2023-06-13T11:07:13.947Z,29.80
2023-06-13T11:08:18.348Z,31.10
2023-06-13T11:09:13.553Z,31.00
2023-06-13T11:10:19.087Z,30.20
2023-06-13T11:11:12.956Z,30.00
2023-06-13T11:12:12.914Z,30.40
2023-06-13T11:13:18.244Z,30.60
2023-06-13T11:14:13.467Z,30.10
2023-06-13T11:15:13.478Z,31.60
2023-06-13T11:16:13.759Z,31.70
2023-06-13T11:17:13.649Z,32.70
2023-06-13T11:18:13.695Z,33.00
2023-06-13T11:19:13.859Z,33.20
2023-06-13T11:20:14.259Z,33.00
2023-06-13T11:21:13.219Z,32.80
2023-06-13T11:22:13.248Z,32.00
2023-06-13T11:23:13.240Z,32.00
2023-06-13T11:24:13.277Z,31.30
2023-06-13T11:25:13.891Z,30.20
2023-06-13T11:26:12.893Z,29.20
2023-06-13T11:27:12.814Z,29.20
2023-06-13T11:28:14.059Z,29.80
2023-06-13T11:29:13.266Z,29.70
2023-06-13T11:30:13.870Z,30.60
2023-06-13T11:31:14.029Z,31.00
2023-06-13T11:32:13.414Z,31.90
2023-06-13T11:33:13.245Z,31.80
2023-06-13T11:34:13.374Z,30.60
2023-06-13T11:35:13.611Z,30.30
2023-06-13T11:36:19.586Z,31.40
2023-06-13T11:37:13.871Z,30.40
2023-06-13T11:38:28.302Z,31.40
2023-06-13T11:39:18.462Z,29.50
2023-06-13T11:41:13.177Z,29.90
2023-06-13T11:42:18.125Z,30.10
2023-06-13T11:43:13.265Z,30.40
2023-06-13T11:44:13.164Z,29.90
2023-06-13T11:45:13.161Z,30.90
2023-06-13T11:46:13.248Z,30.10
2023-06-13T11:47:18.625Z,30.30
2023-06-13T11:48:13.666Z,29.60
2023-06-13T11:49:13.850Z,29.30
2023-06-13T11:50:12.911Z,30.50
2023-06-13T11:51:12.963Z,29.60
2023-06-13T11:52:13.124Z,29.20
2023-06-13T11:53:13.025Z,30.30
2023-06-13T11:54:13.049Z,28.70
2023-06-13T11:55:13.120Z,29.90
2023-06-13T11:56:13.105Z,31.20
2023-06-13T11:57:12.958Z,30.70
2023-06-13T11:58:18.188Z,30.10
2023-06-13T11:59:13.144Z,29.40
2023-06-13T12:00:13.249Z,29.70
2023-06-13T12:01:13.834Z,29.20
2023-06-13T12:02:14.147Z,29.30
2023-06-13T12:03:13.262Z,31.30
2023-06-13T12:04:13.716Z,32.50
2023-06-13T12:05:14.028Z,31.60
2023-06-13T12:06:23.020Z,31.90
2023-06-13T12:07:13.158Z,32.90
2023-06-13T12:08:19.049Z,31.60
2023-06-13T12:09:13.264Z,31.10
2023-06-13T12:10:13.209Z,31.50
2023-06-13T12:11:26.238Z,31.00
2023-06-13T12:12:18.850Z,32.30
2023-06-13T12:13:19.253Z,33.50
2023-06-13T12:14:13.291Z,34.30
2023-06-13T12:15:19.161Z,32.20
2023-06-13T12:16:23.571Z,30.10
2023-06-13T12:17:14.233Z,29.80
2023-06-13T12:18:41.399Z,31.50
2023-06-13T12:19:24.532Z,31.80
2023-06-13T12:20:14.064Z,30.60
2023-06-13T12:21:13.408Z,31.70
2023-06-13T12:22:13.395Z,30.70
2023-06-13T12:23:13.437Z,29.70
2023-06-13T12:24:13.204Z,29.90
2023-06-13T12:25:26.215Z,29.60
2023-06-13T12:26:13.516Z,29.80
2023-06-13T12:27:13.562Z,29.30
2023-06-13T12:28:13.656Z,29.80
2023-06-13T12:29:13.618Z,29.50
2023-06-13T12:30:13.500Z,29.60
2023-06-13T12:31:13.527Z,29.40
2023-06-13T12:32:13.981Z,29.30
2023-06-13T12:33:12.992Z,30.10
2023-06-13T12:34:13.293Z,29.80
2023-06-13T12:35:13.204Z,30.10
2023-06-13T12:36:13.126Z,30.70
2023-06-13T12:37:13.252Z,31.00
2023-06-13T12:38:13.326Z,31.80
2023-06-13T12:39:13.298Z,32.70
2023-06-13T12:40:13.247Z,32.90
2023-06-13T12:41:13.245Z,32.10
2023-06-13T12:42:13.424Z,29.90
2023-06-13T12:43:13.544Z,31.00
2023-06-13T12:44:13.546Z,30.40
2023-06-13T12:45:13.821Z,30.20
2023-06-13T12:46:13.007Z,30.40
2023-06-13T12:47:18.411Z,30.50
2023-06-13T12:48:13.917Z,32.00
2023-06-13T12:49:13.138Z,31.70
2023-06-13T12:50:13.087Z,31.30
2023-06-13T12:51:13.133Z,30.40
2023-06-13T12:52:13.146Z,29.60
2023-06-13T12:53:13.091Z,30.20
2023-06-13T12:54:13.227Z,31.10
2023-06-13T12:55:18.489Z,31.90
2023-06-13T12:56:13.432Z,32.20